Time;durP1;ratioP1;P1;durP2;ratioP2;P2;SDS_P1;SDS_P2;PMS_P1;PMS_P2;Temp;Humidity;BMP_temperature;BMP_pressure;BME280_temperature;BME280_humidity;BME280_pressure;Samples;Min_cycle;Max_cycle;Signal;HPM_P1;HPM_P2
2023/05/24 05:54:58;;;;;;;16.57;10.10;;;;;;;;;;5159212;27;20515;-83
2023/05/24 06:01:47;;;;;;;29.20;17.90;;;;;;;;;;5165796;27;20912;-82
2023/05/24 06:06:32;;;;;;;8.93;6.30;;;11.40;99.90;;;;;;5113242;27;20562;-83
2023/05/24 06:10:48;;;;;;;45.87;27.93;;;11.70;99.90;;;;;;5116562;27;20511;-83
2023/05/24 06:14:37;;;;;;;27.47;19.80;;;11.70;99.90;;;;;;5135792;27;20281;-83
2023/05/24 06:18:36;;;;;;;27.83;18.57;;;11.70;99.90;;;;;;5075038;28;20566;-84
2023/05/24 06:22:51;;;;;;;11.67;7.93;;;;;;;;;;5156379;27;20282;-82
2023/05/24 06:26:53;;;;;;;8.97;5.97;;;11.70;99.90;;;;;;5135441;27;20599;-82
2023/05/24 06:30:35;;;;;;;8.80;5.80;;;11.90;99.90;;;;;;5074127;28;20518;-84
2023/05/24 06:34:32;;;;;;;10.40;7.03;;;11.90;99.90;;;;;;5136567;27;20690;-83
2023/05/24 06:38:42;;;;;;;37.47;25.43;;;12.10;99.90;;;;;;5136526;27;20747;-83
2023/05/24 06:43:01;;;;;;;59.13;38.70;;;12.00;99.90;;;;;;5077406;28;20525;-83
2023/05/24 06:48:29;;;;;;;16.73;12.70;;;11.90;99.90;;;;;;5176327;27;20874;-82
2023/05/24 06:54:44;;;;;;;15.27;11.13;;;11.70;99.90;;;;;;5074113;28;20532;-81
2023/05/24 07:02:08;;;;;;;9.83;6.50;;;11.60;99.90;;;;;;5135692;27;20282;-84
2023/05/24 07:09:20;;;;;;;8.77;7.03;;;11.70;99.90;;;;;;5136447;27;20266;-82
2023/05/24 07:14:35;;;;;;;9.60;5.37;;;11.70;99.90;;;;;;5146278;27;20362;-83
2023/05/24 07:20:53;;;;;;;14.00;7.53;;;11.90;99.90;;;;;;5135932;27;20271;-83
2023/05/24 07:26:20;;;;;;;10.33;5.50;;;11.90;99.90;;;;;;5134696;27;20271;-83
2023/05/24 07:31:39;;;;;;;9.37;6.07;;;11.90;99.90;;;;;;5134539;27;20294;-83
2023/05/24 07:37:09;;;;;;;7.70;5.87;;;11.90;99.90;;;;;;5135399;27;20755;-83
2023/05/24 07:41:09;;;;;;;14.87;5.83;;;;;;;;;;5074734;28;20620;-85
2023/05/24 07:44:52;;;;;;;15.63;7.13;;;12.00;99.90;;;;;;5079775;28;20544;-82
2023/05/24 07:49:00;;;;;;;9.13;5.97;;;12.00;99.90;;;;;;5150500;27;20355;-81
2023/05/24 07:52:50;;;;;;;6.53;5.43;;;11.90;99.90;;;;;;5149304;27;20351;-79
2023/05/24 07:56:47;;;;;;;8.40;5.93;;;12.00;99.90;;;;;;5140516;27;20366;-82
2023/05/24 08:01:01;;;;;;;9.87;6.10;;;12.10;99.90;;;;;;5115658;27;20765;-84
2023/05/24 08:05:40;;;;;;;37.50;25.43;;;12.00;99.90;;;;;;5140326;27;20274;-83
2023/05/24 08:11:40;;;;;;;49.60;31.87;;;11.70;99.90;;;;;;5074197;28;20555;-84
2023/05/24 08:19:10;;;;;;;15.97;7.97;;;11.40;99.90;;;;;;5136925;27;20273;-84
2023/05/24 08:25:25;;;;;;;10.17;7.63;;;11.30;99.90;;;;;;5137145;27;20263;-85
2023/05/24 08:31:36;;;;;;;11.90;7.23;;;11.10;99.90;;;;;;5135558;27;20285;-84
2023/05/24 08:37:46;;;;;;;13.60;7.33;;;10.90;99.90;;;;;;5138146;27;20270;-83
2023/05/24 08:43:00;;;;;;;9.57;7.63;;;11.00;99.90;;;;;;5136062;27;20287;-84
2023/05/24 08:46:49;;;;;;;12.10;8.30;;;11.30;99.90;;;;;;5115352;27;20277;-84
2023/05/24 08:50:37;;;;;;;11.00;6.93;;;11.40;99.90;;;;;;5135648;27;20271;-82
2023/05/24 08:53:05;;;;;;;10.70;7.70;;;11.60;99.90;;;;;;5132762;28;20221;-84
2023/05/24 08:55:31;;;;;;;14.60;10.67;;;11.70;99.90;;;;;;5133616;28;20174;-84
2023/05/24 08:57:58;;;;;;;11.00;8.33;;;11.90;99.90;;;;;;5135203;27;20167;-84
2023/05/24 09:00:24;;;;;;;13.30;7.97;;;12.00;99.90;;;;;;5133612;28;20282;-83
2023/05/24 09:02:50;;;;;;;12.07;8.67;;;12.00;99.90;;;;;;5133460;28;20198;-84
2023/05/24 09:05:20;;;;;;;14.87;11.33;;;12.20;99.90;;;;;;5134076;28;20179;-85
2023/05/24 09:07:49;;;;;;;21.80;14.90;;;12.30;99.90;;;;;;5133968;28;20189;-83
2023/05/24 09:10:18;;;;;;;11.57;10.37;;;12.30;99.90;;;;;;5135189;27;20270;-85
2023/05/24 09:12:47;;;;;;;13.00;6.70;;;12.20;99.90;;;;;;5142732;28;20240;-84
2023/05/24 09:15:13;;;;;;;9.33;7.20;;;12.20;99.90;;;;;;5133529;28;20539;-83
2023/05/24 09:17:40;;;;;;;10.13;7.37;;;12.20;99.90;;;;;;5134544;27;20167;-83
2023/05/24 09:20:09;;;;;;;14.40;8.23;;;12.20;99.90;;;;;;5134960;27;20163;-82
2023/05/24 09:22:39;;;;;;;9.53;6.77;;;12.00;99.90;;;;;;5134255;27;20194;-83
2023/05/24 09:25:05;;;;;;;11.83;6.47;;;12.00;99.90;;;;;;5139399;28;20174;-80
2023/05/24 09:27:33;;;;;;;10.87;8.90;;;11.90;99.90;;;;;;5134250;27;20199;-84
2023/05/24 09:29:59;;;;;;;20.67;14.27;;;11.80;99.90;;;;;;5132686;28;20627;-81
2023/05/24 09:32:24;;;;;;;61.37;48.17;;;11.80;99.90;;;;;;5132575;28;20195;-84
2023/05/24 09:34:52;;;;;;;16.93;12.77;;;11.70;99.90;;;;;;5134615;27;20638;-83
2023/05/24 09:37:25;;;;;;;25.03;17.83;;;11.70;99.90;;;;;;5135011;27;20167;-83
2023/05/24 09:39:51;;;;;;;24.40;19.07;;;11.60;99.90;;;;;;5131893;28;20258;-81
2023/05/24 09:42:29;;;;;;;78.27;59.37;;;11.50;99.90;;;;;;5133630;27;20671;-83
2023/05/24 09:45:03;;;;;;;27.33;20.63;;;11.50;99.90;;;;;;5132608;28;20551;-84
2023/05/24 09:47:33;;;;;;;20.37;14.00;;;11.50;99.90;;;;;;5133211;28;20178;-83
2023/05/24 09:50:00;;;;;;;33.70;23.83;;;11.50;99.90;;;;;;5133326;27;20286;-83
2023/05/24 09:52:26;;;;;;;15.20;8.87;;;11.40;99.90;;;;;;5132359;28;20274;-83
2023/05/24 09:54:52;;;;;;;50.77;35.77;;;11.40;99.90;;;;;;5133529;27;20217;-82
2023/05/24 09:57:21;;;;;;;46.20;32.37;;;;;;;;;;5132839;28;20176;-82
2023/05/24 09:59:51;;;;;;;67.57;47.27;;;11.40;99.90;;;;;;5131120;28;20860;-82
2023/05/24 10:04:01;;;;;;;63.57;44.40;;;11.70;99.90;;;;;;5073830;28;20940;-82
2023/05/24 10:07:56;;;;;;;49.83;31.57;;;11.70;99.90;;;;;;5074234;28;20609;-82
2023/05/24 10:12:42;;;;;;;61.73;35.27;;;11.70;99.90;;;;;;5075132;28;20546;-84
2023/05/24 10:17:59;;;;;;;39.73;24.37;;;11.30;99.90;;;;;;5157508;27;20353;-83
2023/05/24 10:22:40;;;;;;;82.87;50.90;;;11.50;99.90;;;;;;5074172;27;20551;-80
2023/05/24 10:27:11;;;;;;;63.17;43.60;;;11.50;99.90;;;;;;5176181;27;20363;-82
2023/05/24 10:31:06;;;;;;;30.83;18.73;;;12.00;99.90;;;;;;5074040;28;20546;-81
2023/05/24 10:33:36;;;;;;;37.13;26.30;;;11.90;99.90;;;;;;5073304;28;20563;-82
2023/05/24 10:36:03;;;;;;;25.97;14.37;;;12.20;99.90;;;;;;5074082;28;20256;-83
2023/05/24 10:38:30;;;;;;;8.87;6.50;;;12.20;99.90;;;;;;5074692;28;20199;-84
2023/05/24 10:40:56;;;;;;;11.93;7.97;;;12.20;99.90;;;;;;5073273;28;20185;-83
2023/05/24 10:43:22;;;;;;;20.27;16.33;;;12.20;99.90;;;;;;5073800;28;20181;-83
2023/05/24 10:45:49;;;;;;;12.07;6.70;;;11.90;99.90;;;;;;5078900;28;20180;-83
2023/05/24 10:48:15;;;;;;;44.77;25.53;;;11.70;99.90;;;;;;5072485;28;20180;-81
2023/05/24 10:50:41;;;;;;;45.83;30.87;;;;;;;;;;5073202;28;20220;-81
2023/05/24 10:56:13;;;;;;;11.67;8.83;;;11.80;99.90;;;;;;5094861;28;20351;-83
2023/05/24 11:01:32;;;;;;;16.33;6.93;;;11.80;99.90;;;;;;5073863;28;20564;-83
2023/05/24 11:05:46;;;;;;;16.60;6.50;;;11.50;99.90;;;;;;5135098;27;20272;-82
2023/05/24 11:11:44;;;;;;;28.53;19.33;;;11.50;99.90;;;;;;5136547;27;20279;-82
2023/05/24 11:18:26;;;;;;;13.50;6.87;;;11.30;99.90;;;;;;5075991;28;20560;-81
2023/05/24 11:22:30;;;;;;;9.63;6.37;;;11.30;99.90;;;;;;5154827;27;20282;-82
2023/05/24 11:26:24;;;;;;;11.27;7.80;;;11.40;99.90;;;;;;5135614;27;20285;-81
2023/05/24 11:30:32;;;;;;;14.33;7.80;;;;;;;;;;5135178;27;20271;-82
2023/05/24 11:34:32;;;;;;;11.07;6.77;;;11.40;99.90;;;;;;5134218;27;20616;-81
2023/05/24 11:38:13;;;;;;;15.23;7.70;;;11.40;99.90;;;;;;5134170;27;20268;-81
2023/05/24 11:41:53;;;;;;;9.03;6.87;;;11.80;99.90;;;;;;5133439;27;20290;-82
2023/05/24 11:44:19;;;;;;;13.53;7.23;;;11.60;99.90;;;;;;5132610;28;20178;-82
2023/05/24 11:46:45;;;;;;;13.27;7.47;;;11.80;99.90;;;;;;5132226;28;20515;-82
2023/05/24 11:49:13;;;;;;;17.03;10.10;;;11.90;99.90;;;;;;5134606;27;20181;-80
2023/05/24 11:51:39;;;;;;;11.80;6.77;;;12.00;99.90;;;;;;5132024;28;20195;-80
2023/05/24 11:54:05;;;;;;;10.07;6.33;;;12.20;99.90;;;;;;5133690;27;20236;-82
2023/05/24 11:56:31;;;;;;;11.27;6.47;;;12.10;99.90;;;;;;5133754;27;20195;-81
2023/05/24 11:59:21;;;;;;;9.10;5.80;;;12.20;99.90;;;;;;5133927;27;20175;-81
2023/05/24 12:01:47;;;;;;;11.70;6.20;;;12.10;99.90;;;;;;5134224;27;20267;-81
2023/05/24 12:04:12;;;;;;;12.40;6.67;;;12.10;99.90;;;;;;5135332;27;20627;-82
2023/05/24 12:06:41;;;;;;;12.27;6.60;;;12.20;99.90;;;;;;5133223;28;20175;-80
2023/05/24 12:09:09;;;;;;;11.37;6.30;;;12.40;99.90;;;;;;5132785;28;20171;-82
2023/05/24 12:11:42;;;;;;;15.03;7.00;;;12.60;99.90;;;;;;5134007;27;20179;-83
2023/05/24 12:14:29;;;;;;;13.00;5.97;;;12.60;99.90;;;;;;5133835;27;20194;-81
2023/05/24 12:16:58;;;;;;;14.47;6.63;;;12.60;99.90;;;;;;5132331;28;20169;-81
2023/05/24 12:19:28;;;;;;;13.97;5.97;;;12.60;99.90;;;;;;5132272;28;20636;-81
2023/05/24 12:21:56;;;;;;;9.33;6.17;;;12.60;99.90;;;;;;5134778;28;20206;-82
2023/05/24 12:24:23;;;;;;;11.50;7.10;;;12.60;99.90;;;;;;5134274;27;20182;-82
2023/05/24 12:26:49;;;;;;;16.90;6.40;;;12.50;99.90;;;;;;5133844;28;20198;-80
2023/05/24 12:29:16;;;;;;;15.33;6.87;;;12.50;99.90;;;;;;5133022;28;20530;-82
2023/05/24 12:31:46;;;;;;;9.00;6.50;;;12.60;99.90;;;;;;5133710;27;20194;-81
2023/05/24 12:34:12;;;;;;;12.23;5.67;;;12.70;99.90;;;;;;5134113;27;20188;-83
2023/05/24 12:36:41;;;;;;;10.57;5.73;;;12.70;99.90;;;;;;5132872;28;20186;-84
2023/05/24 12:39:19;;;;;;;13.07;6.10;;;12.80;99.90;;;;;;5134075;27;20257;-83
2023/05/24 12:41:53;;;;;;;14.67;7.20;;;12.90;99.90;;;;;;5133570;27;20207;-83
2023/05/24 12:44:27;;;;;;;11.47;6.33;;;13.10;99.90;;;;;;5134314;27;20487;-83
2023/05/24 12:46:54;;;;;;;13.63;7.33;;;13.20;99.90;;;;;;5132749;28;20190;-82
2023/05/24 12:49:23;;;;;;;12.03;6.77;;;13.20;99.90;;;;;;5132925;28;20175;-84
2023/05/24 12:51:49;;;;;;;13.87;6.37;;;13.40;99.90;;;;;;5126387;28;20631;-83
2023/05/24 12:54:18;;;;;;;14.37;7.00;;;13.50;99.90;;;;;;5118850;28;20169;-84
2023/05/24 12:56:44;;;;;;;11.50;7.03;;;13.60;99.90;;;;;;5123822;28;20171;-81
2023/05/24 12:59:10;;;;;;;10.20;6.43;;;13.80;99.90;;;;;;5125193;28;20180;-83
2023/05/24 13:01:36;;;;;;;17.97;6.57;;;13.90;99.90;;;;;;5118386;28;20204;-83
2023/05/24 13:04:02;;;;;;;9.77;6.20;;;13.90;99.90;;;;;;5119246;28;20255;-84
2023/05/24 13:06:28;;;;;;;12.20;7.03;;;13.80;99.90;;;;;;5118715;28;20293;-81
2023/05/24 13:08:53;;;;;;;10.33;6.27;;;14.00;99.90;;;;;;5117359;28;20274;-81
2023/05/24 13:11:19;;;;;;;11.37;5.93;;;14.20;99.90;;;;;;5118664;28;20199;-82
2023/05/24 13:13:45;;;;;;;9.03;6.40;;;14.30;99.90;;;;;;5117269;28;20190;-83
2023/05/24 13:16:11;;;;;;;12.83;6.53;;;14.60;99.90;;;;;;5116939;28;20278;-83
2023/05/24 13:18:37;;;;;;;12.97;6.37;;;14.60;99.90;;;;;;5118605;28;20254;-81
2023/05/24 13:21:04;;;;;;;9.00;6.03;;;14.60;99.90;;;;;;5116697;28;20246;-81
2023/05/24 13:23:34;;;;;;;11.83;6.30;;;14.30;99.90;;;;;;5117920;28;20568;-80
2023/05/24 13:26:01;;;;;;;12.47;6.27;;;14.20;99.90;;;;;;5118341;28;20580;-81
2023/05/24 13:28:30;;;;;;;12.47;6.30;;;14.00;99.90;;;;;;5118130;28;20739;-80
2023/05/24 13:30:55;;;;;;;8.87;6.27;;;14.00;99.90;;;;;;5116519;28;20175;-81
2023/05/24 13:33:21;;;;;;;10.17;6.33;;;13.90;99.90;;;;;;5117834;28;20197;-82
2023/05/24 13:35:47;;;;;;;9.13;6.23;;;13.90;99.90;;;;;;5116637;28;20182;-82
2023/05/24 13:38:12;;;;;;;9.03;6.30;;;13.70;99.90;;;;;;5118183;28;20175;-81
2023/05/24 13:40:39;;;;;;;12.77;7.03;;;13.60;99.90;;;;;;5116251;28;20209;-82
2023/05/24 13:43:05;;;;;;;9.37;6.30;;;13.60;99.90;;;;;;5117653;28;20326;-82
2023/05/24 13:45:32;;;;;;;11.23;5.97;;;13.80;99.90;;;;;;5117752;28;20175;-83
2023/05/24 13:48:02;;;;;;;11.23;5.93;;;13.90;99.90;;;;;;5118153;28;20168;-84
2023/05/24 13:50:30;;;;;;;12.27;6.43;;;14.00;99.90;;;;;;5116549;28;20182;-82
2023/05/24 13:52:57;;;;;;;11.40;6.77;;;14.00;99.90;;;;;;5118003;28;20680;-81
2023/05/24 13:55:23;;;;;;;10.13;6.13;;;14.10;99.90;;;;;;5118281;28;20177;-83
2023/05/24 13:57:48;;;;;;;13.13;6.93;;;14.30;99.90;;;;;;5116880;28;20579;-83
2023/05/24 14:00:16;;;;;;;10.80;6.43;;;14.60;99.90;;;;;;5118938;28;20195;-81
2023/05/24 14:02:42;;;;;;;10.73;6.93;;;14.70;99.90;;;;;;5117888;28;20689;-81
2023/05/24 14:05:08;;;;;;;12.13;7.30;;;14.80;99.90;;;;;;5120498;28;20168;-81
2023/05/24 14:07:34;;;;;;;15.93;8.63;;;15.20;99.90;;;;;;5120819;28;20269;-81
2023/05/24 14:10:00;;;;;;;15.17;7.73;;;15.30;99.90;;;;;;5118266;28;20626;-82
2023/05/24 14:12:26;;;;;;;14.03;9.00;;;15.40;99.90;;;;;;5120569;28;20199;-82
2023/05/24 14:14:51;;;;;;;10.73;7.20;;;15.60;99.90;;;;;;5122638;28;20173;-81
2023/05/24 14:17:17;;;;;;;12.20;7.07;;;15.60;99.90;;;;;;5130935;28;20164;-79
2023/05/24 14:19:43;;;;;;;13.70;7.77;;;15.40;99.90;;;;;;5134948;28;20180;-81
2023/05/24 14:22:08;;;;;;;10.90;6.60;;;15.30;99.90;;;;;;5136073;28;20196;-80
2023/05/24 14:24:34;;;;;;;14.53;7.40;;;15.20;99.90;;;;;;5135164;28;20194;-79
2023/05/24 14:27:00;;;;;;;13.93;8.07;;;15.30;99.90;;;;;;5125205;28;20273;-83
2023/05/24 14:29:26;;;;;;;15.47;8.17;;;15.50;99.90;;;;;;5117010;28;20633;-83
2023/05/24 14:31:52;;;;;;;12.53;7.40;;;15.60;99.90;;;;;;5117683;28;20196;-82
2023/05/24 14:34:17;;;;;;;12.13;7.37;;;15.70;99.90;;;;;;5117161;28;20180;-83
2023/05/24 14:36:44;;;;;;;10.43;7.10;;;15.70;99.90;;;;;;5117257;28;20199;-82
2023/05/24 14:39:10;;;;;;;14.07;7.53;;;15.50;99.90;;;;;;5118492;28;20194;-80
2023/05/24 14:41:35;;;;;;;15.03;7.67;;;15.30;99.90;;;;;;5118432;28;20207;-82
2023/05/24 14:44:01;;;;;;;18.37;7.43;;;15.20;99.90;;;;;;5119005;28;20186;-80
2023/05/24 14:46:27;;;;;;;8.23;6.37;;;15.10;99.90;;;;;;5116760;28;20210;-83
2023/05/24 14:48:53;;;;;;;9.67;7.17;;;15.10;99.90;;;;;;5128999;28;20185;-81
2023/05/24 14:51:19;;;;;;;14.03;6.77;;;15.00;99.90;;;;;;5115187;28;20218;-82
2023/05/24 14:53:45;;;;;;;17.57;7.33;;;15.60;99.90;;;;;;5115830;28;20181;-81
2023/05/24 14:56:13;;;;;;;13.30;7.17;;;16.00;99.90;;;;;;5115535;28;20187;-82
2023/05/24 14:58:39;;;;;;;10.53;6.70;;;16.30;99.90;;;;;;5115906;28;20267;-81
2023/05/24 15:01:05;;;;;;;14.27;7.40;;;16.20;99.90;;;;;;5117113;28;20574;-82
2023/05/24 15:03:31;;;;;;;13.87;7.13;;;17.00;99.90;;;;;;5117570;28;20172;-81
2023/05/24 15:05:57;;;;;;;14.73;7.70;;;18.10;99.90;;;;;;5117289;28;20225;-81
2023/05/24 15:08:23;;;;;;;10.63;7.13;;;18.60;99.90;;;;;;5117153;28;20220;-81
2023/05/24 15:10:49;;;;;;;9.50;7.63;;;18.90;99.90;;;;;;5115557;28;20182;-82
2023/05/24 15:13:16;;;;;;;12.50;7.20;;;19.30;99.90;;;;;;5116954;27;20176;-82
2023/05/24 15:15:43;;;;;;;14.27;7.90;;;19.20;99.90;;;;;;5114820;28;20202;-83
2023/05/24 15:18:08;;;;;;;11.57;6.70;;;18.80;99.90;;;;;;5116896;28;20235;-82
2023/05/24 15:20:35;;;;;;;9.33;6.60;;;18.30;99.90;;;;;;5115051;28;20230;-81
2023/05/24 15:23:01;;;;;;;7.37;6.10;;;17.90;99.90;;;;;;5115924;28;20326;-82
2023/05/24 15:25:26;;;;;;;15.33;6.77;;;18.00;99.90;;;;;;5116991;28;20216;-83
2023/05/24 15:27:52;;;;;;;10.50;6.73;;;18.00;99.90;;;;;;5116307;28;20170;-83
2023/05/24 15:30:18;;;;;;;12.57;7.10;;;18.30;99.90;;;;;;5116178;28;20170;-82
2023/05/24 15:32:47;;;;;;;12.60;7.20;;;18.60;99.90;;;;;;5115085;28;20202;-83
2023/05/24 15:35:13;;;;;;;8.50;6.63;;;18.40;99.90;;;;;;5117364;28;20169;-81
2023/05/24 15:37:39;;;;;;;10.07;6.40;;;18.00;99.90;;;;;;5116512;28;20168;-83
2023/05/24 15:40:07;;;;;;;10.13;6.67;;;17.50;99.90;;;;;;5114551;28;20235;-80
2023/05/24 15:42:33;;;;;;;9.13;6.07;;;17.00;99.90;;;;;;5114622;28;20571;-82
2023/05/24 15:44:59;;;;;;;15.03;6.90;;;16.80;99.90;;;;;;5116793;28;20222;-81
2023/05/24 15:47:27;;;;;;;7.70;5.63;;;16.10;99.90;;;;;;5116042;28;20631;-83
2023/05/24 15:49:53;;;;;;;12.27;6.40;;;15.70;99.90;;;;;;5114666;28;20182;-82
2023/05/24 15:52:19;;;;;;;9.63;6.37;;;15.70;99.90;;;;;;5115125;28;20201;-82
2023/05/24 15:54:45;;;;;;;12.27;6.50;;;15.50;99.90;;;;;;5116503;28;20166;-83
2023/05/24 15:57:10;;;;;;;9.53;5.93;;;15.90;99.90;;;;;;5115441;28;20258;-83
2023/05/24 15:59:37;;;;;;;8.87;6.50;;;16.30;99.90;;;;;;5115173;28;20172;-81
2023/05/24 16:02:06;;;;;;;10.07;6.23;;;16.90;99.90;;;;;;5116518;28;20192;-81
2023/05/24 16:04:32;;;;;;;10.87;6.33;;;17.40;99.90;;;;;;5116726;28;20249;-83
2023/05/24 16:06:58;;;;;;;8.50;6.57;;;17.80;99.90;;;;;;5117085;28;20567;-83
2023/05/24 16:09:23;;;;;;;11.27;6.43;;;17.40;99.90;;;;;;5117296;28;20178;-83
2023/05/24 16:11:49;;;;;;;13.00;6.50;;;16.70;99.90;;;;;;5117692;28;20217;-84
2023/05/24 16:14:15;;;;;;;9.33;6.67;;;16.00;99.90;;;;;;5117002;28;20170;-83
2023/05/24 16:16:42;;;;;;;15.40;6.97;;;15.50;99.90;;;;;;5115892;28;20222;-84
2023/05/24 16:19:08;;;;;;;15.47;6.83;;;15.20;99.90;;;;;;5116946;28;20169;-81
2023/05/24 16:21:34;;;;;;;9.87;6.90;;;14.90;99.90;;;;;;5116889;28;20212;-82
2023/05/24 16:24:04;;;;;;;11.93;7.30;;;14.50;99.90;;;;;;5117072;28;20516;-84
2023/05/24 16:26:31;;;;;;;11.03;7.03;;;14.10;99.90;;;;;;5115265;28;20255;-82
2023/05/24 16:28:57;;;;;;;9.37;7.37;;;13.90;99.90;;;;;;5119315;28;20167;-82
2023/05/24 16:31:22;;;;;;;11.60;7.30;;;14.00;99.90;;;;;;5119492;28;20253;-82
2023/05/24 16:33:48;;;;;;;10.03;7.27;;;14.00;99.90;;;;;;5121590;28;20175;-81
2023/05/24 16:36:15;;;;;;;11.80;6.93;;;14.20;99.90;;;;;;5120943;28;20222;-83
2023/05/24 16:38:41;;;;;;;10.70;7.20;;;14.10;99.90;;;;;;5129798;28;20240;-81
2023/05/24 16:41:08;;;;;;;9.60;6.37;;;13.90;99.90;;;;;;5116714;28;20567;-80
2023/05/24 16:43:34;;;;;;;12.70;7.43;;;13.80;99.90;;;;;;5118696;28;20200;-81
2023/05/24 16:46:00;;;;;;;11.37;7.20;;;13.80;99.90;;;;;;5118257;28;20504;-81
2023/05/24 16:48:30;;;;;;;10.10;6.50;;;13.80;99.90;;;;;;5118457;28;20179;-80
2023/05/24 16:50:56;;;;;;;12.40;7.00;;;13.80;99.90;;;;;;5118397;28;20172;-81
2023/05/24 16:53:26;;;;;;;10.93;6.70;;;13.60;99.90;;;;;;5117524;28;20198;-82
2023/05/24 16:55:52;;;;;;;16.87;7.23;;;13.60;99.90;;;;;;5118894;28;20179;-83
2023/05/24 17:05:55;;;;;;;8.00;5.73;;;13.70;99.90;;;;;;5136964;27;20721;-82
2023/05/24 17:13:50;;;;;;;10.43;5.57;;;13.00;99.90;;;;;;5135688;27;20273;-82
2023/05/24 17:19:35;;;;;;;13.27;6.13;;;12.50;99.90;;;;;;5114581;27;20268;-81
2023/05/24 17:26:13;;;;;;;19.37;5.73;;;12.00;99.90;;;;;;5163203;27;20266;-81
2023/05/24 17:31:40;;;;;;;10.17;6.07;;;11.90;99.90;;;;;;5137741;27;20284;-81
2023/05/24 17:37:49;;;;;;;9.07;5.67;;;11.70;99.90;;;;;;5156567;27;20258;-82
2023/05/24 17:44:33;;;;;;;11.53;5.67;;;11.50;99.90;;;;;;5135458;27;20267;-83
2023/05/24 17:53:29;;;;;;;15.17;6.53;;;11.10;99.90;;;;;;5135697;27;20267;-82
